Time;durP1;ratioP1;P1;durP2;ratioP2;P2;SDS_P1;SDS_P2;PMS_P1;PMS_P2;Temp;Humidity;BMP_temperature;BMP_pressure;BME280_temperature;BME280_humidity;BME280_pressure;Samples;Min_cycle;Max_cycle;Signal;HPM_P1;HPM_P2
2021/07/27 00:01:12;;;;;;;;;17.00;14.25;;;;;21.83;57.69;100958.38;4950709;28;45699;-79
2021/07/27 00:03:38;;;;;;;;;13.50;12.75;;;;;21.77;57.88;100955.03;4974981;28;46426;-80
2021/07/27 00:06:10;;;;;;;;;15.00;15.00;;;;;21.73;57.94;100953.47;4978097;28;45743;-80
2021/07/27 00:08:36;;;;;;;;;21.00;16.00;;;;;21.73;58.38;100952.56;4968664;28;45391;-79
2021/07/27 00:11:06;;;;;;;;;16.00;16.00;;;;;21.71;57.88;100952.66;4978012;28;45551;-80
2021/07/27 00:13:34;;;;;;;;;15.50;15.50;;;;;21.68;58.03;100950.13;4975528;28;47752;-79
2021/07/27 00:16:00;;;;;;;;;14.25;13.75;;;;;21.68;57.95;100954.59;4960566;28;45400;-79
2021/07/27 00:18:26;;;;;;;;;13.75;13.25;;;;;21.61;57.94;100937.06;4979547;28;45618;-79
2021/07/27 00:20:51;;;;;;;;;14.25;14.25;;;;;21.67;58.08;100955.53;4943353;28;45379;-79
2021/07/27 00:23:17;;;;;;;;;19.50;18.50;;;;;21.64;58.02;100950.31;4958828;28;47401;-79
2021/07/27 00:25:43;;;;;;;;;15.25;11.75;;;;;21.62;58.10;100944.16;4959440;28;45619;-80
2021/07/27 00:28:09;;;;;;;;;15.75;14.25;;;;;21.59;58.10;100938.00;4952161;28;45357;-79
2021/07/27 00:30:35;;;;;;;;;15.25;13.25;;;;;21.57;58.06;100936.31;4979474;28;45575;-80
2021/07/27 00:33:01;;;;;;;;;15.75;14.00;;;;;21.57;58.04;100939.00;4970238;28;47053;-80
2021/07/27 00:35:28;;;;;;;;;14.75;14.50;;;;;21.57;57.97;100934.53;4943568;28;45268;-79
2021/07/27 00:38:09;;;;;;;;;16.25;15.00;;;;;21.51;58.04;100925.91;4943180;28;45477;-80
2021/07/27 00:40:36;;;;;;;;;15.75;15.75;;;;;21.51;57.95;100929.44;4950606;28;45688;-79
2021/07/27 00:43:07;;;;;;;;;16.75;15.00;;;;;21.55;57.98;100932.88;4964894;28;45296;-79
2021/07/27 00:45:33;;;;;;;;;14.75;13.25;;;;;21.55;58.14;100924.84;4958452;28;45349;-79
2021/07/27 00:47:58;;;;;;;;;17.00;15.50;;;;;21.52;58.35;100923.16;4959863;28;45542;-80
2021/07/27 00:50:26;;;;;;;;;17.50;15.75;;;;;21.58;58.39;100938.09;4958984;28;45582;-80
2021/07/27 00:52:52;;;;;;;;;19.75;17.00;;;;;21.56;58.18;100931.91;4960237;28;45352;-80
2021/07/27 00:55:18;;;;;;;;;16.00;15.00;;;;;21.52;58.18;100931.19;4960321;28;45332;-80
2021/07/27 00:57:44;;;;;;;;;15.25;14.50;;;;;21.51;58.07;100931.25;4960276;28;45227;-80
2021/07/27 01:00:11;;;;;;;;;16.50;15.00;;;;;21.48;58.38;100924.22;4978675;28;45300;-81
2021/07/27 01:02:37;;;;;;;;;11.50;11.50;;;;;21.46;58.43;100928.78;4967705;28;46899;-80
2021/07/27 01:05:03;;;;;;;;;14.25;13.25;;;;;21.43;58.29;100926.25;4970485;28;45753;-81
2021/07/27 01:07:29;;;;;;;;;13.25;12.50;;;;;21.45;58.42;100934.22;4975062;28;45412;-81
2021/07/27 01:09:54;;;;;;;;;16.00;12.00;;;;;21.45;58.47;100936.91;4974556;28;45315;-80
2021/07/27 01:12:20;;;;;;;;;16.00;15.50;;;;;21.36;58.30;100931.00;4945406;28;46965;-80
2021/07/27 01:14:45;;;;;;;;;13.75;13.75;;;;;21.40;58.71;100942.47;4962235;28;45359;-81
2021/07/27 01:17:13;;;;;;;;;14.25;14.25;;;;;21.36;58.50;100935.50;4963271;28;45435;-80
2021/07/27 01:20:00;;;;;;;;;11.00;10.25;;;;;21.36;58.48;100946.22;4946022;28;45503;-80
2021/07/27 01:43:50;;;;;;;;;12.25;12.25;;;;;21.15;59.39;100926.63;4962547;28;46023;-80
2021/07/27 01:46:16;;;;;;;;;15.25;13.25;;;;;21.12;59.34;100924.94;4962578;28;45429;-80
2021/07/27 01:48:42;;;;;;;;;13.00;12.50;;;;;21.14;59.55;100924.88;4961674;28;45319;-81
2021/07/27 01:51:07;;;;;;;;;14.25;13.25;;;;;21.13;59.18;100915.97;4961681;28;45491;-80
2021/07/27 01:54:02;;;;;;;;;14.25;13.50;;;;;21.12;59.57;100921.41;4960967;28;47912;-80
2021/07/27 01:56:24;;;;;;;;;18.50;17.50;;;;;21.09;59.51;100905.44;4962017;28;45353;-80
2021/07/27 01:58:50;;;;;;;;;17.00;14.00;;;;;21.07;59.47;100910.91;4966707;28;45490;-81
2021/07/27 02:01:21;;;;;;;;;19.00;18.00;;;;;21.07;59.58;100910.03;4988430;28;45359;-81
2021/07/27 02:03:46;;;;;;;;;12.50;12.50;;;;;21.06;59.46;100906.50;4961674;28;46023;-80
2021/07/27 02:06:12;;;;;;;;;14.50;13.00;;;;;21.07;59.81;100904.69;4975633;28;46150;-80
2021/07/27 02:08:37;;;;;;;;;15.00;13.50;;;;;21.04;59.49;100899.47;4948022;28;45593;-81
2021/07/27 02:11:05;;;;;;;;;11.00;11.00;;;;;21.01;59.63;100904.94;4960961;28;45505;-81
2021/07/27 02:13:44;;;;;;;;;12.25;12.00;;;;;21.02;60.26;100899.53;4962740;28;45477;-81
2021/07/27 02:16:10;;;;;;;;;13.75;13.75;;;;;21.00;60.32;100900.53;4964083;28;45413;-81
2021/07/27 02:18:35;;;;;;;;;12.25;12.00;;;;;20.95;60.23;100894.50;4964135;28;45351;-81
2021/07/27 02:21:01;;;;;;;;;16.25;14.75;;;;;20.93;60.17;100886.56;4974848;28;45569;-80
2021/07/27 02:23:28;;;;;;;;;13.00;11.75;;;;;20.90;60.27;100892.91;4961622;28;46212;-81
2021/07/27 02:25:54;;;;;;;;;16.50;14.75;;;;;20.97;60.54;100906.88;4961126;28;45982;-80
2021/07/27 02:28:20;;;;;;;;;16.00;13.50;;;;;20.96;60.48;100905.16;4972753;28;45352;-80
2021/07/27 02:31:06;;;;;;;;;15.00;15.00;;;;;20.95;60.37;100903.41;4963761;28;45377;-80
2021/07/27 02:33:35;;;;;;;;;15.25;12.75;;;;;21.00;60.95;100908.56;4982764;28;47169;-80
2021/07/27 02:36:02;;;;;;;;;17.50;16.75;;;;;21.00;60.52;100904.06;4981816;28;45235;-80
2021/07/27 02:38:28;;;;;;;;;16.25;14.00;;;;;20.96;60.28;100890.91;4963871;28;45472;-79
2021/07/27 02:41:08;;;;;;;;;18.50;16.25;;;;;20.98;60.62;100894.38;4966795;28;46149;-80
2021/07/27 02:43:33;;;;;;;;;15.50;13.00;;;;;20.93;60.50;100886.56;4948118;28;45199;-81
2021/07/27 02:45:59;;;;;;;;;13.00;12.25;;;;;20.96;60.78;100880.22;4963533;28;45239;-80
2021/07/27 02:48:24;;;;;;;;;14.75;13.75;;;;;20.96;60.38;100883.75;4944812;28;45225;-79
2021/07/27 02:51:01;;;;;;;;;14.75;13.25;;;;;20.98;60.61;100892.56;4968979;28;45498;-78
2021/07/27 02:53:29;;;;;;;;;16.00;15.00;;;;;20.97;60.43;100879.25;4956569;28;47253;-79
2021/07/27 02:55:57;;;;;;;;;18.00;15.25;;;;;20.93;60.55;100887.44;4944261;28;45529;-79
2021/07/27 02:58:22;;;;;;;;;14.00;14.00;;;;;20.99;60.20;100894.31;4963274;28;45359;-79
2021/07/27 03:00:47;;;;;;;;;14.00;14.00;;;;;20.93;60.78;100883.88;4984674;28;45491;-80
2021/07/27 03:03:13;;;;;;;;;15.50;15.50;;;;;20.99;60.59;100891.63;4956628;28;48626;-79
2021/07/27 03:05:38;;;;;;;;;15.50;13.50;;;;;20.97;60.67;100885.47;4960058;28;45307;-79
2021/07/27 03:08:10;;;;;;;;;11.75;10.75;;;;;21.00;60.89;100893.34;4971700;28;45645;-79
2021/07/27 03:10:35;;;;;;;;;15.75;15.00;;;;;21.00;60.84;100889.81;4966583;28;45386;-79
2021/07/27 03:13:01;;;;;;;;;17.50;15.00;;;;;20.98;60.49;100880.97;4951950;28;48196;-79
2021/07/27 03:15:29;;;;;;;;;17.75;15.50;;;;;20.95;60.66;100883.81;4966199;28;45187;-80
2021/07/27 03:17:56;;;;;;;;;17.00;14.50;;;;;20.95;60.72;100882.00;4961547;28;45300;-79
2021/07/27 03:20:22;;;;;;;;;11.50;11.50;;;;;20.89;60.54;100868.88;4943045;28;45386;-79
2021/07/27 03:22:50;;;;;;;;;13.75;13.00;;;;;20.87;60.53;100857.38;4943772;28;46916;-79
2021/07/27 03:25:18;;;;;;;;;16.50;14.25;;;;;20.91;60.61;100867.88;4959854;28;45381;-79
2021/07/27 03:27:45;;;;;;;;;14.25;13.25;;;;;20.88;60.76;100854.63;4970537;28;45205;-79
2021/07/27 03:30:15;;;;;;;;;14.75;13.75;;;;;20.86;60.43;100853.84;4962979;28;45369;-79
2021/07/27 03:32:42;;;;;;;;;16.50;13.75;;;;;20.86;60.76;100847.63;4979345;28;45496;-79
2021/07/27 03:35:08;;;;;;;;;18.50;15.75;;;;;20.81;61.02;100844.28;4973938;28;45462;-80
2021/07/27 03:37:34;;;;;;;;;17.75;16.75;;;;;20.83;60.89;100845.94;4961264;28;45468;-80
2021/07/27 03:40:00;;;;;;;;;19.25;16.50;;;;;20.81;60.83;100838.91;4965276;28;45227;-80
2021/07/27 03:42:26;;;;;;;;;17.75;13.50;;;;;20.81;60.68;100830.91;4969351;28;45283;-80
2021/07/27 03:44:58;;;;;;;;;17.75;16.25;;;;;20.86;60.73;100839.59;4960864;28;45424;-80
2021/07/27 03:47:24;;;;;;;;;14.25;14.25;;;;;20.81;61.05;100838.91;4943577;28;45270;-80
2021/07/27 03:49:50;;;;;;;;;18.50;17.00;;;;;20.88;60.84;100851.97;4960670;28;45411;-80
2021/07/27 03:52:15;;;;;;;;;17.00;17.00;;;;;20.87;60.92;100858.25;4943593;28;47681;-80
2021/07/27 03:54:41;;;;;;;;;15.75;15.75;;;;;20.88;60.74;100854.63;4943386;28;45258;-78
2021/07/27 03:57:07;;;;;;;;;14.00;13.50;;;;;20.86;61.16;100840.44;4961523;28;45456;-79
2021/07/27 03:59:33;;;;;;;;;16.00;16.00;;;;;20.89;61.04;100844.81;4962332;28;45547;-79
2021/07/27 04:01:59;;;;;;;;;14.75;13.75;;;;;20.89;61.06;100844.81;4988884;28;47468;-80
2021/07/27 04:04:26;;;;;;;;;15.25;14.25;;;;;20.86;60.70;100848.47;4963616;28;45452;-79
2021/07/27 04:06:51;;;;;;;;;17.50;16.50;;;;;20.88;60.94;100848.44;4978691;28;45309;-79
2021/07/27 04:09:17;;;;;;;;;14.50;14.50;;;;;20.82;60.91;100828.16;4976797;28;45666;-79
2021/07/27 04:11:42;;;;;;;;;14.50;13.00;;;;;20.86;60.97;100837.78;4961421;28;46359;-79
2021/07/27 04:14:10;;;;;;;;;19.25;17.00;;;;;20.83;60.75;100834.38;4977002;28;45270;-79
2021/07/27 04:16:40;;;;;;;;;12.25;12.00;;;;;20.82;61.22;100829.94;4960946;28;45461;-79
2021/07/27 04:19:06;;;;;;;;;15.75;15.00;;;;;20.81;61.29;100842.47;4975583;28;45318;-80
2021/07/27 04:21:33;;;;;;;;;18.75;15.00;;;;;20.81;61.51;100842.47;4975639;28;47651;-80
2021/07/27 04:24:02;;;;;;;;;16.75;14.75;;;;;20.79;60.96;100843.47;4975545;28;45337;-79
2021/07/27 04:26:28;;;;;;;;;15.25;15.25;;;;;20.79;61.21;100855.03;4960966;28;45349;-79
2021/07/27 04:28:54;;;;;;;;;12.50;12.25;;;;;20.80;61.40;100864.81;4974674;28;45373;-79
2021/07/27 04:31:20;;;;;;;;;12.50;12.50;;;;;20.78;61.17;100866.69;4983293;28;47118;-79
2021/07/27 04:33:45;;;;;;;;;16.75;14.50;;;;;20.77;61.55;100864.06;4978259;28;45386;-80
2021/07/27 04:36:11;;;;;;;;;18.00;15.00;;;;;20.73;61.31;100863.34;4964370;28;45392;-79
2021/07/27 04:38:38;;;;;;;;;17.50;14.25;;;;;20.77;61.29;100861.38;4964049;28;45171;-79
2021/07/27 04:41:07;;;;;;;;;13.25;13.00;;;;;20.77;61.98;100864.97;4962569;28;46321;-80
2021/07/27 04:43:34;;;;;;;;;15.75;14.75;;;;;20.75;61.28;100855.25;4965097;28;46047;-80
2021/07/27 04:46:06;;;;;;;;;13.00;12.25;;;;;20.76;61.30;100843.59;4965698;28;45383;-80
2021/07/27 04:48:32;;;;;;;;;16.50;15.75;;;;;20.75;61.17;100831.19;4987047;28;45650;-80
2021/07/27 04:51:01;;;;;;;;;15.75;15.00;;;;;20.75;61.41;100821.34;4968117;28;48223;-79
2021/07/27 04:53:29;;;;;;;;;15.50;15.50;;;;;20.79;61.30;100824.72;4964056;28;45237;-79
2021/07/27 04:56:00;;;;;;;;;18.75;18.75;;;;;20.70;61.64;100824.22;4979378;28;45394;-80
2021/07/27 04:58:25;;;;;;;;;18.25;17.25;;;;;20.77;61.29;100848.91;4978981;28;45313;-79
2021/07/27 05:00:51;;;;;;;;;14.75;12.75;;;;;20.74;61.47;100848.16;5004301;28;47179;-80
2021/07/27 05:03:16;;;;;;;;;17.00;16.00;;;;;20.74;61.42;100842.81;4981939;28;45218;-87
2021/07/27 05:05:42;;;;;;;;;18.75;17.00;;;;;20.78;61.32;100850.63;4985578;28;45543;-85
2021/07/27 05:08:07;;;;;;;;;14.50;14.25;;;;;20.72;61.41;100834.00;4971298;28;45273;-87
2021/07/27 05:10:33;;;;;;;;;15.25;13.75;;;;;20.78;61.56;100842.59;4963578;28;45764;-85
2021/07/27 05:13:01;;;;;;;;;21.50;18.75;;;;;20.69;61.21;100829.66;4970838;28;45408;-82
2021/07/27 05:15:26;;;;;;;;;14.75;13.75;;;;;20.71;61.77;100835.78;4967424;28;45578;-82
2021/07/27 05:18:01;;;;;;;;;16.50;13.50;;;;;20.75;61.65;100858.81;4977925;28;45640;-82
2021/07/27 05:20:31;;;;;;;;;20.75;19.00;;;;;20.72;61.56;100861.63;4961976;28;47203;-83
2021/07/27 05:22:57;;;;;;;;;16.25;15.50;;;;;20.66;61.44;100841.34;4978293;28;45462;-82
2021/07/27 05:25:34;;;;;;;;;18.25;15.00;;;;;20.64;61.37;100843.22;4962111;28;45228;-82
2021/07/27 05:28:02;;;;;;;;;15.50;15.25;;;;;20.70;61.46;100861.66;4969775;28;45235;-84
2021/07/27 05:30:28;;;;;;;;;16.00;15.00;;;;;20.64;61.68;100859.28;4978120;28;46547;-83
2021/07/27 05:32:55;;;;;;;;;18.00;16.50;;;;;20.61;61.74;100862.09;4978392;28;45460;-84
2021/07/27 05:35:21;;;;;;;;;13.00;13.00;;;;;20.63;61.34;100868.22;4978327;28;45618;-82
2021/07/27 05:37:47;;;;;;;;;17.25;17.00;;;;;20.54;61.83;100851.72;4963568;28;45440;-82
2021/07/27 05:40:21;;;;;;;;;16.50;15.75;;;;;20.58;61.55;100872.03;4964262;28;48083;-84
2021/07/27 05:42:52;;;;;;;;;15.00;14.25;;;;;20.55;61.52;100866.81;4970156;28;45273;-82
2021/07/27 05:45:18;;;;;;;;;16.25;15.25;;;;;20.54;61.97;100862.41;4988811;28;45332;-80
2021/07/27 05:47:43;;;;;;;;;16.25;15.25;;;;;20.57;62.14;100876.50;4980317;28;44834;-81
2021/07/27 05:50:10;;;;;;;;;14.00;13.00;;;;;20.60;61.58;100883.53;4979666;28;47293;-81
2021/07/27 05:52:38;;;;;;;;;17.50;14.75;;;;;20.59;61.91;100889.84;4963791;28;45305;-80
2021/07/27 05:55:07;;;;;;;;;13.00;12.25;;;;;20.57;61.95;100884.53;4963519;28;45226;-80
2021/07/27 05:57:32;;;;;;;;;19.25;15.25;;;;;20.51;62.24;100889.28;4976347;28;45449;-80
2021/07/27 05:59:58;;;;;;;;;15.00;14.50;;;;;20.49;62.22;100882.16;4973784;28;48011;-80
2021/07/27 06:02:24;;;;;;;;;18.25;17.00;;;;;20.49;62.03;100892.00;4971141;28;45420;-79
2021/07/27 06:04:49;;;;;;;;;19.00;19.00;;;;;20.49;61.45;100887.50;4961933;28;45392;-77
2021/07/27 06:07:15;;;;;;;;;17.50;15.25;;;;;20.49;62.02;100881.28;4968038;28;45249;-77
2021/07/27 06:09:40;;;;;;;;;18.50;18.00;;;;;20.55;61.91;100894.44;4975799;28;45421;-80
2021/07/27 06:12:09;;;;;;;;;15.50;14.50;;;;;20.56;61.54;100898.88;4961532;28;45288;-79
2021/07/27 06:14:35;;;;;;;;;21.75;16.25;;;;;20.57;61.50;100907.75;4963314;28;45303;-83
2021/07/27 06:17:00;;;;;;;;;16.25;16.00;;;;;20.51;61.43;100897.28;4960445;28;45638;-83
2021/07/27 06:19:26;;;;;;;;;18.75;16.75;;;;;20.55;61.45;100906.94;4961103;28;47254;-83
2021/07/27 06:21:52;;;;;;;;;16.50;14.00;;;;;20.55;61.82;100897.09;4945610;28;45461;-83
2021/07/27 06:24:17;;;;;;;;;20.00;17.50;;;;;20.56;61.95;100887.31;4963277;28;45311;-83
2021/07/27 06:26:43;;;;;;;;;15.00;14.50;;;;;20.54;61.85;100881.13;4945753;28;45577;-83
2021/07/27 06:29:11;;;;;;;;;18.00;18.00;;;;;20.53;61.97;100877.56;4980127;28;46103;-83
2021/07/27 06:31:36;;;;;;;;;13.25;13.25;;;;;20.57;61.47;100891.69;4987818;28;45513;-83
2021/07/27 06:34:05;;;;;;;;;18.50;16.75;;;;;20.61;61.28;100904.00;4974201;28;45228;-83
2021/07/27 06:36:31;;;;;;;;;14.50;12.50;;;;;20.59;61.30;100904.06;4962641;28;45263;-83
2021/07/27 06:38:57;;;;;;;;;21.25;20.25;;;;;20.58;61.67;100898.78;4961257;28;47032;-83
2021/07/27 06:41:25;;;;;;;;;17.50;13.75;;;;;20.60;61.31;100907.63;4944661;28;45494;-83
2021/07/27 06:43:50;;;;;;;;;16.00;16.00;;;;;20.57;61.51;100908.63;4944679;28;45435;-83
2021/07/27 06:46:16;;;;;;;;;15.25;14.75;;;;;20.56;61.48;100909.56;4974867;28;45468;-83
2021/07/27 06:48:43;;;;;;;;;18.50;16.50;;;;;20.57;61.18;100911.28;4962407;28;45455;-83
2021/07/27 06:51:16;;;;;;;;;16.50;14.25;;;;;20.53;61.20;100898.97;4962519;28;45260;-83
2021/07/27 06:53:43;;;;;;;;;20.50;18.25;;;;;20.58;60.99;100909.47;4944632;28;45314;-81
2021/07/27 06:56:10;;;;;;;;;15.75;15.25;;;;;20.65;61.29;100919.00;4963643;28;45294;-79
2021/07/27 06:58:38;;;;;;;;;18.50;16.75;;;;;20.62;61.05;100920.00;4961650;28;45271;-79
2021/07/27 07:01:05;;;;;;;;;17.00;17.00;;;;;20.67;60.99;100928.69;4976690;28;45364;-79
2021/07/27 07:03:30;;;;;;;;;19.00;15.50;;;;;20.66;60.82;100921.63;4972272;28;45424;-80
2021/07/27 07:05:58;;;;;;;;;19.00;13.75;;;;;20.64;60.53;100918.13;4944202;28;45551;-80
2021/07/27 07:08:24;;;;;;;;;19.25;17.75;;;;;20.68;60.73;100919.72;4975640;28;45251;-80
2021/07/27 07:10:59;;;;;;;;;13.50;12.50;;;;;20.73;60.85;100916.84;4964729;28;45244;-81
2021/07/27 07:13:26;;;;;;;;;16.00;16.00;;;;;20.80;60.92;100915.66;4962310;28;44723;-81
2021/07/27 07:15:53;;;;;;;;;13.25;12.75;;;;;20.84;60.47;100914.56;4973458;28;45652;-82
2021/07/27 07:18:19;;;;;;;;;17.75;15.50;;;;;20.94;60.10;100928.44;4961701;28;45289;-80
2021/07/27 07:20:44;;;;;;;;;17.75;14.00;;;;;20.95;59.82;100921.28;4944077;28;45758;-78
2021/07/27 07:23:10;;;;;;;;;19.75;16.00;;;;;21.01;59.63;100937.06;4961453;28;45437;-80
2021/07/27 07:25:39;;;;;;;;;16.75;14.00;;;;;21.04;59.90;100943.16;4959972;28;46019;-80
2021/07/27 07:28:07;;;;;;;;;12.50;11.75;;;;;21.05;59.96;100930.63;4951207;28;48034;-80
2021/07/27 07:30:33;;;;;;;;;15.00;14.00;;;;;21.11;59.76;100930.34;4961326;28;45346;-80
2021/07/27 07:32:59;;;;;;;;;16.00;12.00;;;;;21.12;59.44;100930.31;4970154;28;45412;-80
2021/07/27 07:35:27;;;;;;;;;13.25;13.25;;;;;21.13;59.75;100929.34;4944015;28;45449;-80
2021/07/27 07:37:52;;;;;;;;;18.50;17.50;;;;;21.20;59.42;100929.97;4960843;28;45493;-79
2021/07/27 07:40:18;;;;;;;;;15.50;14.75;;;;;21.25;59.34;100933.31;4959711;28;45300;-79
2021/07/27 07:42:44;;;;;;;;;14.75;13.50;;;;;21.23;59.27;100929.81;4943889;28;45369;-80
2021/07/27 07:45:09;;;;;;;;;14.25;14.25;;;;;21.26;58.95;100929.69;4967982;28;45283;-80
2021/07/27 07:47:35;;;;;;;;;17.25;16.25;;;;;21.23;58.98;100924.47;4949303;28;47190;-80
2021/07/27 07:50:00;;;;;;;;;11.75;10.75;;;;;21.18;59.11;100917.59;4961438;28;45390;-80
2021/07/27 07:52:26;;;;;;;;;14.75;14.75;;;;;21.22;58.64;100929.88;4959555;28;45353;-80
2021/07/27 07:54:52;;;;;;;;;14.50;14.25;;;;;21.19;59.06;100924.66;4961323;28;45377;-80
2021/07/27 07:57:17;;;;;;;;;16.00;15.50;;;;;21.21;59.04;100931.69;4960475;28;46299;-81
2021/07/27 07:59:44;;;;;;;;;13.50;12.75;;;;;21.22;59.10;100928.06;4966857;28;45436;-79
2021/07/27 08:02:09;;;;;;;;;15.50;15.00;;;;;21.21;58.92;100934.38;4988718;28;45254;-79
2021/07/27 08:04:35;;;;;;;;;13.00;13.00;;;;;21.23;59.04;100937.84;4962289;28;45369;-81
2021/07/27 08:07:00;;;;;;;;;16.75;14.75;;;;;21.22;58.79;100929.88;4969438;28;47399;-82
2021/07/27 08:09:25;;;;;;;;;14.00;13.25;;;;;21.15;59.07;100926.63;4972421;28;45419;-81
2021/07/27 08:11:51;;;;;;;;;16.00;16.00;;;;;21.15;59.00;100929.31;4963941;28;45390;-81
2021/07/27 08:14:16;;;;;;;;;13.50;11.75;;;;;21.17;59.13;100934.56;4974931;28;45613;-80
2021/07/27 08:16:42;;;;;;;;;14.50;13.25;;;;;21.24;58.82;100944.94;4960296;28;45446;-79
2021/07/27 08:19:07;;;;;;;;;15.25;13.00;;;;;21.16;58.71;100939.06;4959217;28;45272;-79
2021/07/27 08:21:33;;;;;;;;;16.50;15.00;;;;;21.21;58.63;100953.13;4960875;28;45322;-81
2021/07/27 08:23:58;;;;;;;;;13.25;11.50;;;;;21.15;58.15;100945.38;4959171;28;45258;-80
2021/07/27 08:26:24;;;;;;;;;11.00;11.00;;;;;21.07;58.57;100935.00;4975250;28;45927;-80
2021/07/27 08:28:51;;;;;;;;;16.25;14.50;;;;;21.09;58.87;100951.88;4975090;28;45436;-79
2021/07/27 08:31:17;;;;;;;;;16.25;14.50;;;;;21.04;58.77;100944.97;4982595;28;45623;-79
2021/07/27 08:33:42;;;;;;;;;14.75;14.75;;;;;21.05;58.99;100952.06;4975543;28;45580;-80
2021/07/27 08:36:08;;;;;;;;;18.00;17.75;;;;;21.02;59.07;100941.50;4960479;28;45472;-80
2021/07/27 08:38:35;;;;;;;;;17.00;14.75;;;;;21.06;59.21;100949.31;4960219;28;45333;-78
2021/07/27 08:41:02;;;;;;;;;12.25;11.50;;;;;21.03;59.06;100936.06;4959252;28;45362;-79
2021/07/27 08:43:28;;;;;;;;;18.75;15.25;;;;;20.98;59.63;100915.78;4958740;28;45615;-79
2021/07/27 08:45:54;;;;;;;;;15.00;15.00;;;;;20.97;59.55;100912.25;4960196;28;46174;-78
2021/07/27 08:48:23;;;;;;;;;12.75;12.25;;;;;21.04;60.03;100918.22;4975424;28;46010;-79
2021/07/27 08:50:49;;;;;;;;;15.25;13.00;;;;;21.07;59.46;100915.38;4960817;28;45428;-81
2021/07/27 08:53:14;;;;;;;;;18.25;17.50;;;;;21.09;59.31;100924.19;4975556;28;46043;-81
2021/07/27 08:55:40;;;;;;;;;14.25;13.75;;;;;21.07;59.45;100921.59;4960117;28;45539;-79
2021/07/27 08:58:05;;;;;;;;;16.50;15.50;;;;;21.08;59.96;100917.13;4966453;28;45333;-80
2021/07/27 09:00:32;;;;;;;;;14.50;14.50;;;;;21.12;60.06;100927.63;4986964;28;45339;-80
2021/07/27 09:03:11;;;;;;;;;16.25;15.00;;;;;21.20;60.07;100934.44;4976301;28;45252;-81
2021/07/27 09:05:38;;;;;;;;;18.25;16.50;;;;;21.20;60.23;100924.59;4942117;28;47243;-80
2021/07/27 09:08:04;;;;;;;;;15.75;14.75;;;;;21.26;60.42;100937.72;4953523;28;45349;-78
2021/07/27 09:10:30;;;;;;;;;18.00;14.75;;;;;21.29;59.81;100939.38;4948155;28;45283;-78
2021/07/27 09:13:00;;;;;;;;;15.00;15.00;;;;;21.36;60.06;100944.41;4958415;28;45550;-78
2021/07/27 09:15:28;;;;;;;;;15.00;15.00;;;;;21.38;60.23;100933.63;4957962;28;47268;-78
2021/07/27 09:18:04;;;;;;;;;16.25;14.75;;;;;21.42;59.57;100934.38;4959438;28;45421;-79
2021/07/27 09:20:56;;;;;;;;;16.25;15.00;;;;;21.48;59.88;100944.81;4962437;28;45532;-78
2021/07/27 09:23:24;;;;;;;;;18.00;16.75;;;;;21.45;59.92;100940.47;4944357;28;45298;-78
2021/07/27 09:25:57;;;;;;;;;13.25;12.50;;;;;21.45;60.00;100950.31;4969508;28;45453;-79
2021/07/27 09:28:24;;;;;;;;;15.25;14.00;;;;;21.50;59.86;100956.31;4979489;28;45407;-79
2021/07/27 09:30:56;;;;;;;;;14.75;13.50;;;;;21.49;59.73;100946.53;4986588;28;45312;-79
2021/07/27 09:33:28;;;;;;;;;16.50;16.50;;;;;21.50;59.87;100948.28;4966853;28;45478;-78
2021/07/27 09:35:53;;;;;;;;;17.25;17.25;;;;;21.50;59.85;100943.78;4945254;28;48379;-78
2021/07/27 09:38:19;;;;;;;;;15.25;15.25;;;;;21.50;59.66;100943.78;4962122;28;45289;-76
2021/07/27 09:40:52;;;;;;;;;14.00;13.00;;;;;21.52;59.87;100947.28;4962889;28;45223;-78
2021/07/27 09:43:20;;;;;;;;;14.75;13.75;;;;;21.47;59.83;100932.34;4962432;28;45304;-77
2021/07/27 09:45:47;;;;;;;;;13.25;12.25;;;;;21.49;60.05;100938.50;4962081;28;45367;-77
2021/07/27 09:48:17;;;;;;;;;17.50;16.75;;;;;21.48;60.42;100934.94;4962219;28;45555;-78
2021/07/27 09:50:47;;;;;;;;;17.00;14.50;;;;;21.49;59.98;100941.16;4962635;28;45257;-80
2021/07/27 09:53:13;;;;;;;;;13.25;12.25;;;;;21.45;60.44;100934.22;4944813;28;45552;-80
2021/07/27 09:55:39;;;;;;;;;17.00;13.25;;;;;21.48;60.55;100939.44;4962360;28;46403;-80
2021/07/27 09:58:07;;;;;;;;;17.00;15.00;;;;;21.49;60.54;100958.16;4946877;28;45392;-80
2021/07/27 10:01:08;;;;;;;;;15.00;13.00;;;;;21.46;60.88;100942.19;4983085;28;45360;-78
2021/07/27 10:03:44;;;;;;;;;20.00;15.00;;;;;21.45;60.76;100953.00;4963880;28;45613;-79
2021/07/27 10:06:11;;;;;;;;;15.00;13.75;;;;;21.48;60.66;100959.06;4963997;28;46436;-81
2021/07/27 10:08:37;;;;;;;;;11.25;11.00;;;;;21.43;60.25;100957.53;4977835;28;45257;-79
2021/07/27 10:11:10;;;;;;;;;12.25;12.00;;;;;21.43;60.53;100962.88;4962283;28;45382;-80
2021/07/27 10:13:39;;;;;;;;;12.50;12.25;;;;;21.38;61.01;100957.72;4962260;28;45636;-79
2021/07/27 10:16:05;;;;;;;;;14.00;14.00;;;;;21.41;61.12;100964.75;4964197;28;46474;-80
2021/07/27 10:18:35;;;;;;;;;11.00;10.50;;;;;21.35;61.12;100964.06;4973632;28;45182;-81
2021/07/27 10:21:23;;;;;;;;;16.50;14.25;;;;;21.33;61.27;100965.97;4974008;28;45470;-78
2021/07/27 10:23:49;;;;;;;;;15.00;13.25;;;;;21.28;61.59;100965.31;4979472;28;45289;-78
2021/07/27 10:26:32;;;;;;;;;15.25;12.50;;;;;21.23;61.54;100964.63;4969089;28;47560;-80
2021/07/27 10:28:58;;;;;;;;;13.75;13.25;;;;;21.16;61.38;100965.84;4976836;28;45271;-79
2021/07/27 10:31:38;;;;;;;;;13.00;10.75;;;;;21.12;61.68;100961.56;4988592;28;45270;-79
2021/07/27 10:34:06;;;;;;;;;14.50;12.75;;;;;21.10;61.76;100960.75;4971872;28;45577;-80
2021/07/27 10:36:34;;;;;;;;;14.25;13.00;;;;;21.10;61.77;100964.31;4961674;28;46195;-82
2021/07/27 10:39:15;;;;;;;;;12.75;11.25;;;;;21.05;62.03;100952.91;4961084;28;45393;-82
2021/07/27 10:41:44;;;;;;;;;12.00;12.00;;;;;21.10;62.40;100961.63;4962342;28;45407;-83
2021/07/27 10:44:14;;;;;;;;;14.00;13.75;;;;;21.19;61.97;100971.03;4961128;28;45496;-84
2021/07/27 10:46:45;;;;;;;;;13.50;13.00;;;;;21.22;62.04;100959.34;4961367;28;45948;-83
2021/07/27 10:49:22;;;;;;;;;11.75;11.25;;;;;21.27;62.06;100963.53;4961848;28;45206;-82
2021/07/27 10:51:50;;;;;;;;;14.00;12.00;;;;;21.29;62.55;100955.44;4968252;28;45361;-84
2021/07/27 10:54:17;;;;;;;;;15.75;14.25;;;;;21.36;62.70;100952.44;4964726;28;45534;-83
2021/07/27 10:56:59;;;;;;;;;15.25;13.75;;;;;21.44;62.26;100945.88;4976328;28;47715;-82
2021/07/27 10:59:26;;;;;;;;;17.75;13.75;;;;;21.53;62.27;100937.44;4962818;28;45995;-83
2021/07/27 11:01:55;;;;;;;;;16.00;14.00;;;;;21.59;62.15;100931.78;4991815;28;45249;-83
2021/07/27 11:04:29;;;;;;;;;14.00;12.25;;;;;21.65;61.38;100934.19;4963556;28;45275;-85
2021/07/27 11:07:12;;;;;;;;;11.00;11.00;;;;;21.68;61.77;100936.72;4978051;28;47596;-80
2021/07/27 11:09:59;;;;;;;;;14.75;14.00;;;;;21.69;61.90;100929.53;4979059;28;45647;-81
2021/07/27 11:12:39;;;;;;;;;14.00;14.00;;;;;21.67;61.63;100926.91;4965060;28;45480;-82
2021/07/27 11:15:14;;;;;;;;;13.00;12.25;;;;;21.74;61.31;100935.56;4976205;28;46055;-80
2021/07/27 11:18:00;;;;;;;;;14.50;11.75;;;;;21.72;61.10;100926.72;4975593;28;47226;-78
2021/07/27 11:20:31;;;;;;;;;13.50;12.75;;;;;21.71;60.96;100925.00;4961493;28;45780;-79
2021/07/27 11:23:11;;;;;;;;;11.75;11.00;;;;;21.73;60.95;100931.13;4970361;28;45290;-80
2021/07/27 11:25:38;;;;;;;;;13.50;12.25;;;;;21.72;61.01;100940.13;4959630;28;45442;-79
2021/07/27 11:28:14;;;;;;;;;15.25;14.00;;;;;21.69;61.10;100930.41;4968216;28;46398;-79
2021/07/27 11:30:41;;;;;;;;;13.25;12.50;;;;;21.70;61.28;100933.94;4968704;28;45350;-77
2021/07/27 11:33:11;;;;;;;;;14.25;12.50;;;;;21.75;61.15;100943.50;4986198;28;45439;-78
2021/07/27 11:35:48;;;;;;;;;11.75;11.75;;;;;21.77;61.29;100941.63;4975959;28;45364;-78